Data for 03/31/2009

Time Sea-Level Adjusted Pressure Absolute Pressure Temperature Relative Humidity Dew Point   
(mb) (inHg) (mb) (inHg) (C) (F) (%) (C) (F)
00:05 1016 30 845 24.95 -3 26.6 87 -4.8 23.3
00:10 1016 30 845 24.95 -2.8 27 84 -5 23
00:15 1016 30 845 24.95 -2.5 27.5 84 -4.9 23.2
00:20 1016 30 845 24.95 -2.3 27.8 84 -4.7 23.5
00:25 1016 30 845 24.95 -2.3 27.8 77 -5.9 21.4
00:30 1016 30 845 24.95 -2.2 28.1 75 -6.1 21
00:35 1016 30 845 24.95 -1.9 28.5 74 -5.9 21.4
00:40 1016 30 845 24.95 -1.9 28.6 77 -5.4 22.3
00:45 1015 29.97 845 24.95 -2 28.4 77 -5.4 22.2
00:50 1015 29.97 845 24.95 -2.1 28.3 76 -5.7 21.8
00:55 1015 29.97 845 24.95 -2.1 28.2 75 -5.9 21.4
01:00 1015 29.97 845 24.95 -2 28.4 74 -6 21.1
01:05 1015 29.97 845 24.95 -2 28.5 71 -6.5 20.4
01:10 1015 29.97 845 24.95 -1.9 28.6 71 -6.5 20.3
01:15 1015 29.97 845 24.95 -1.8 28.8 68 -7 19.5
01:20 1015 29.97 845 24.95 -1.7 28.9 66 -7.2 19
01:25 1015 29.97 845 24.95 -1.8 28.8 66 -7.4 18.7
01:30 1015 29.97 844 24.92 -1.8 28.7 64 -7.7 18.2
01:35 1015 29.97 844 24.92 -1.9 28.7 65 -7.6 18.3
01:40 1015 29.97 844 24.92 -1.9 28.6 65 -7.6 18.3
01:45 1015 29.97 844 24.92 -2 28.4 66 -7.6 18.3
01:50 1015 29.97 844 24.92 -2 28.3 67 -7.4 18.6
01:55 1015 29.97 844 24.92 -2 28.3 65 -7.7 18.1
02:00 1015 29.97 844 24.92 -2 28.4 65 -7.8 18
02:05 1015 29.97 844 24.92 -2 28.5 64 -8 17.7
02:10 1015 29.97 844 24.92 -1.9 28.5 63 -8.1 17.3
02:15 1015 29.97 844 24.92 -2 28.3 62 -8.3 17.1
02:20 1015 29.97 844 24.92 -2.3 27.8 68 -7.5 18.6
02:25 1015 29.97 844 24.92 -2.5 27.4 68 -7.7 18.2
02:30 1015 29.97 844 24.92 -2.4 27.7 64 -8.3 17.1
02:35 1015 29.97 844 24.92 -2.1 28.1 58 -9.2 15.4
02:40 1014 29.94 844 24.92 -1.9 28.6 58 -9.2 15.5
02:45 1014 29.94 844 24.92 -1.8 28.8 57 -9.1 15.6
02:50 1014 29.94 844 24.92 -1.8 28.8 56 -9.4 15.1
02:55 1014 29.94 844 24.92 -1.7 28.9 56 -9.4 15.1
03:00 1014 29.94 844 24.92 -1.7 29 57 -9.2 15.5
03:05 1014 29.94 844 24.92 -1.7 28.9 58 -8.8 16.1
03:10 1014 29.94 844 24.92 -1.8 28.7 59 -8.7 16.3
03:15 1014 29.94 844 24.92 -1.8 28.7 60 -8.7 16.3
03:20 1014 29.94 844 24.92 -1.9 28.7 60 -8.6 16.5
03:25 1014 29.94 844 24.92 -2 28.4 62 -8.3 17.1
03:30 1014 29.94 844 24.92 -2.2 28 65 -8 17.6
03:35 1014 29.94 844 24.92 -2.4 27.7 67 -7.8 18
03:40 1014 29.94 844 24.92 -2.6 27.4 68 -7.6 18.3
03:45 1014 29.94 844 24.92 -3 26.6 75 -6.8 19.7
03:50 1014 29.94 843 24.89 -3.5 25.7 76 -7.1 19.2
03:55 1014 29.94 843 24.89 -3.5 25.6 76 -7.2 19
04:00 1014 29.94 843 24.89 -3.6 25.6 74 -7.6 18.3
04:05 1014 29.94 843 24.89 -3.5 25.8 73 -7.6 18.3
04:10 1014 29.94 843 24.89 -3.5 25.7 72 -7.9 17.8
04:15 1014 29.94 843 24.89 -3.3 26.1 69 -8.1 17.4
04:20 1014 29.94 843 24.89 -3.2 26.2 68 -8.3 17.1
04:25 1014 29.94 843 24.89 -3.1 26.3 67 -8.4 16.9
04:30 1014 29.94 843 24.89 -3.2 26.3 67 -8.4 16.9
04:35 1014 29.94 843 24.89 -3.2 26.3 67 -8.5 16.7
04:40 1014 29.94 843 24.89 -3.1 26.4 66 -8.5 16.7
04:45 1014 29.94 843 24.89 -3 26.5 67 -8.4 16.9
04:50 1014 29.94 843 24.89 -3.1 26.3 67 -8.5 16.7
04:55 1014 29.94 843 24.89 -3.2 26.2 67 -8.6 16.6
05:00 1014 29.94 843 24.89 -3.2 26.2 66 -8.7 16.4
05:05 1014 29.94 843 24.89 -3.3 26.1 66 -8.8 16.1
05:10 1014 29.94 843 24.89 -3.2 26.2 65 -8.9 16
05:15 1014 29.94 843 24.89 -2.9 26.7 62 -9.3 15.2
05:20 1014 29.94 843 24.89 -2.8 26.9 63 -8.9 15.9
05:25 1014 29.94 843 24.89 -2.9 26.9 62 -9.1 15.7
05:30 1014 29.94 843 24.89 -2.8 26.9 63 -9 15.8
05:35 1014 29.94 843 24.89 -2.8 26.9 61 -9.2 15.4
05:40 1014 29.94 843 24.89 -2.8 27 61 -9.3 15.3
05:45 1014 29.94 843 24.89 -2.8 27 61 -9.4 15.2
05:50 1014 29.94 843 24.89 -2.7 27.2 61 -9.1 15.6
05:55 1014 29.94 843 24.89 -2.7 27.1 62 -9.1 15.7
06:00 1014 29.94 843 24.89 -2.8 27 63 -8.9 16.1
06:05 1014 29.94 843 24.89 -2.8 26.9 64 -8.8 16.2
06:10 1014 29.94 843 24.89 -2.8 26.9 64 -8.8 16.1
06:15 1014 29.94 843 24.89 -2.7 27.1 62 -9 15.7
06:20 1014 29.94 843 24.89 -2.7 27.1 63 -8.8 16.1
06:25 1014 29.94 843 24.89 -2.9 26.9 63 -9 15.9
06:30 1014 29.94 843 24.89 -3 26.7 63 -8.9 15.9
06:35 1014 29.94 843 24.89 -3.1 26.5 64 -9 15.8
06:40 1013 29.91 843 24.89 -3.3 26.1 65 -9.1 15.7
06:45 1013 29.91 843 24.89 -3.5 25.7 65 -9.1 15.5
06:50 1013 29.91 843 24.89 -3.5 25.8 64 -9.3 15.2
06:55 1013 29.91 843 24.89 -3.1 26.4 63 -9.3 15.3
07:00 1013 29.91 843 24.89 -3 26.6 64 -9 15.9
07:05 1013 29.91 843 24.89 -3.1 26.5 66 -8.6 16.5
07:10 1013 29.91 843 24.89 -3.3 26 68 -8.4 16.9
07:15 1013 29.91 843 24.89 -3.4 25.9 65 -9 15.8
07:20 1013 29.91 842 24.86 -3.2 26.2 64 -9.1 15.6
07:25 1013 29.91 842 24.86 -3.1 26.5 65 -8.8 16.1
07:30 1013 29.91 842 24.86 -3.1 26.5 66 -8.6 16.5
07:35 1013 29.91 842 24.86 -3 26.6 65 -8.6 16.5
07:40 1013 29.91 842 24.86 -2.9 26.8 65 -8.6 16.5
07:45 1013 29.91 842 24.86 -2.8 27 65 -8.5 16.7
07:50 1013 29.91 842 24.86 -2.9 26.8 64 -8.8 16.2
07:55 1013 29.91 842 24.86 -2.8 26.9 64 -8.7 16.3
08:00 1013 29.91 842 24.86 -2.7 27.2 64 -8.6 16.4
08:05 1013 29.91 842 24.86 -2.5 27.5 63 -8.7 16.4
08:10 1013 29.91 842 24.86 -2.5 27.6 62 -8.7 16.3
08:15 1013 29.91 842 24.86 -2.4 27.6 61 -8.9 15.9
08:20 1013 29.91 842 24.86 -2.2 28 61 -8.7 16.3
08:25 1013 29.91 842 24.86 -2.1 28.2 61 -8.7 16.3
08:30 1013 29.91 842 24.86 -2 28.4 59 -8.9 16
08:35 1013 29.91 842 24.86 -2 28.5 60 -8.7 16.4
08:40 1013 29.91 842 24.86 -1.9 28.6 60 -8.7 16.4
08:45 1013 29.91 842 24.86 -2 28.5 61 -8.5 16.7
08:50 1013 29.91 842 24.86 -1.9 28.5 61 -8.6 16.6
08:55 1013 29.91 842 24.86 -1.8 28.7 60 -8.6 16.5
09:00 1012 29.88 842 24.86 -1.9 28.7 59 -8.8 16.2
09:05 1012 29.88 842 24.86 -1.8 28.7 58 -9.1 15.7
09:10 1012 29.88 842 24.86 -1.7 29 58 -8.8 16.1
09:15 1012 29.88 842 24.86 -1.6 29.2 58 -8.8 16.1
09:20 1012 29.88 842 24.86 -1.6 29.2 57 -9 15.8
09:25 1012 29.88 841 24.83 -1.5 29.3 56 -9.1 15.6
09:30 1012 29.88 841 24.83 -1.5 29.4 58 -8.7 16.3
09:35 1012 29.88 841 24.83 -1.4 29.5 57 -8.8 16.2
09:40 1012 29.88 841 24.83 -1.2 29.9 53 -9.5 15
09:45 1012 29.88 841 24.83 -1.2 29.9 55 -9.1 15.6
09:50 1012 29.88 841 24.83 -0.9 30.3 53 -9.3 15.2
09:55 1012 29.88 841 24.83 -0.9 30.4 54 -9.1 15.6
10:00 1012 29.88 841 24.83 -0.5 31.1 50 -9.7 14.5
10:05 1012 29.88 841 24.83 -0.5 31.1 53 -9 15.8
10:10 1012 29.88 841 24.83 -0.4 31.4 50 -9.5 15
10:15 1012 29.88 841 24.83 -0 31.9 50 -9.2 15.4
10:20 1011 29.85 841 24.83 0 32.1 49 -9.3 15.2
10:25 1011 29.85 841 24.83 -0 31.9 50 -9.2 15.5
10:30 1011 29.85 841 24.83 0.1 32.1 49 -9.5 15
10:35 1011 29.85 840 24.81 -0.2 31.7 50 -9.3 15.3
10:40 1011 29.85 840 24.81 -0.2 31.7 51 -9.2 15.4
10:45 1011 29.85 840 24.81 0.1 32.1 48 -9.8 14.4
10:50 1011 29.85 840 24.81 0.1 32.1 50 -9.2 15.4
10:55 1011 29.85 840 24.81 0.2 32.4 46 -10.1 13.8
11:00 1011 29.85 840 24.81 0.6 33.2 44 -10.3 13.5
11:05 1011 29.85 840 24.81 1.2 34.1 46 -9.3 15.3
11:10 1011 29.85 840 24.81 1.5 34.7 46 -8.8 16.2
11:15 1011 29.85 840 24.81 1.4 34.5 45 -9.4 15.1
11:20 1010 29.83 840 24.81 1.3 34.4 44 -9.6 14.7
11:25 1010 29.83 839 24.78 2 35.6 43 -9.4 15.1
11:30 1010 29.83 839 24.78 1.3 34.4 46 -9.1 15.6
11:35 1010 29.83 839 24.78 1.4 34.6 45 -9.3 15.2
11:40 1010 29.83 839 24.78 1.1 34 48 -8.7 16.3
11:45 1010 29.83 839 24.78 2.1 35.7 46 -8.2 17.2
11:50 1010 29.83 839 24.78 2.3 36.1 42 -9.2 15.4
11:55 1010 29.83 839 24.78 1.8 35.3 43 -9.5 15
12:00 1010 29.83 839 24.78 1.6 34.9 42 -9.9 14.2
12:05 1010 29.83 839 24.78 1.8 35.3 44 -9.1 15.6
12:10 1010 29.83 839 24.78 1.9 35.4 43 -9.4 15
12:15 1009 29.8 839 24.78 2.4 36.3 41 -9.5 15
12:20 1009 29.8 839 24.78 3.1 37.6 41 -8.9 16
12:25 1009 29.8 838 24.75 2.9 37.2 39 -9.7 14.5
12:30 1009 29.8 838 24.75 2.5 36.5 40 -9.7 14.5
12:35 1009 29.8 838 24.75 2.6 36.7 37 -10.9 12.5
12:40 1009 29.8 838 24.75 2.8 37.1 42 -9 15.9
12:45 1009 29.8 838 24.75 2.5 36.5 39 -10.1 13.8
12:50 1009 29.8 838 24.75 2.9 37.2 37 -10.5 13.1
12:55 1009 29.8 838 24.75 3 37.3 39 -9.7 14.6
13:00 1009 29.8 838 24.75 3.1 37.6 40 -9.2 15.4
13:05 1009 29.8 838 24.75 3.5 38.3 37 -9.9 14.2
13:10 1008 29.77 838 24.75 3.8 38.8 36 -10 14
13:15 1008 29.77 837 24.72 4.1 39.5 36 -9.8 14.4
13:20 1008 29.77 837 24.72 4 39.2 34 -10.6 12.9
13:25 1008 29.77 837 24.72 3.9 39 36 -9.7 14.5
13:30 1008 29.77 837 24.72 4.4 39.9 38 -8.8 16.2
13:35 1008 29.77 837 24.72 3.9 39 40 -8.6 16.5
13:40 1008 29.77 837 24.72 3.4 38.2 37 -9.8 14.3
13:45 1008 29.77 837 24.72 3.9 39 39 -9 15.9
13:50 1008 29.77 837 24.72 4.2 39.6 40 -8.2 17.2
13:55 1008 29.77 837 24.72 4.4 40 39 -8.4 16.8
14:00 1008 29.77 837 24.72 4.5 40.1 38 -8.5 16.8
14:05 1007 29.74 837 24.72 4.4 39.8 41 -7.6 18.3
14:10 1007 29.74 836 24.69 4.5 40.1 39 -8.2 17.3
14:15 1007 29.74 836 24.69 4.8 40.7 38 -8.4 16.8
14:20 1007 29.74 836 24.69 4 39.1 42 -7.7 18.1
14:25 1007 29.74 836 24.69 3.7 38.7 40 -8.7 16.4
14:30 1007 29.74 836 24.69 4.1 39.3 38 -9 15.8
14:35 1007 29.74 836 24.69 3.9 38.9 40 -8.4 16.8
14:40 1007 29.74 836 24.69 4.3 39.7 39 -8.5 16.8
14:45 1007 29.74 836 24.69 3.7 38.6 43 -7.7 18.2
14:50 1007 29.74 836 24.69 3 37.4 44 -8.2 17.2
14:55 1006 29.71 836 24.69 3 37.4 43 -8.4 16.9
15:00 1006 29.71 835 24.66 3 37.3 44 -8 17.5
15:05 1006 29.71 835 24.66 3.3 38 44 -7.9 17.7
15:10 1006 29.71 835 24.66 3.2 37.8 49 -6.4 20.4
15:15 1006 29.71 835 24.66 2.7 36.8 52 -6.2 20.9
15:20 1006 29.71 835 24.66 2.3 36.2 51 -6.7 20
15:25 1006 29.71 835 24.66 2.2 36 53 -6.5 20.4
15:30 1006 29.71 835 24.66 2 35.6 53 -6.5 20.3
15:35 1006 29.71 835 24.66 1.8 35.2 54 -6.5 20.2
15:40 1006 29.71 835 24.66 2.1 35.9 54 -6.3 20.6
15:45 1005 29.68 835 24.66 2.5 36.5 51 -6.6 20.1
15:50 1005 29.68 835 24.66 2.6 36.7 52 -6.4 20.6
15:55 1005 29.68 835 24.66 1.9 35.5 56 -5.9 21.3
16:00 1005 29.68 835 24.66 1.6 34.9 55 -6.4 20.5
16:05 1005 29.68 835 24.66 2 35.6 55 -6.2 20.9
16:10 1006 29.71 835 24.66 1.9 35.5 59 -5.3 22.5
16:15 1006 29.71 835 24.66 1.4 34.5 66 -4.2 24.4
16:20 1006 29.71 835 24.66 1.4 34.6 67 -4.1 24.6
16:25 1005 29.68 835 24.66 1.1 34 71 -3.6 25.5
16:30 1005 29.68 835 24.66 0.8 33.4 74 -3.4 25.9
16:35 1005 29.68 834 24.63 0.9 33.6 73 -3.3 26
16:40 1005 29.68 834 24.63 0.5 32.9 74 -3.5 25.7
16:45 1005 29.68 834 24.63 0.3 32.6 76 -3.5 25.7
16:50 1005 29.68 834 24.63 0.1 32.2 78 -3.2 26.2
16:55 1005 29.68 834 24.63 0.1 32.1 80 -2.9 26.8
17:00 1005 29.68 834 24.63 0.1 32.2 82 -2.5 27.4
17:05 1005 29.68 834 24.63 0.1 32.2 82 -2.7 27.2
17:10 1005 29.68 834 24.63 -0.1 31.8 83 -2.6 27.3
17:15 1005 29.68 834 24.63 -0.2 31.6 85 -2.4 27.6
17:20 1005 29.68 834 24.63 -0.5 31.1 87 -2.3 27.8
17:25 1005 29.68 834 24.63 -0.5 31 88 -2.3 27.8
17:30 1005 29.68 834 24.63 -0.6 30.9 88 -2.3 27.9
17:35 1005 29.68 834 24.63 -0.9 30.5 90 -2.3 27.8
17:40 1005 29.68 834 24.63 -0.9 30.4 91 -2.2 28.1
17:45 1004 29.65 834 24.63 -0.9 30.4 92 -2 28.4
17:50 1004 29.65 834 24.63 -0.7 30.7 91 -2.1 28.3
17:55 1004 29.65 833 24.6 -0.6 31 90 -2.1 28.3
18:00 1004 29.65 833 24.6 -0.5 31.2 90 -1.9 28.6
18:05 1004 29.65 833 24.6 -0.6 31 90 -2 28.4
18:10 1004 29.65 833 24.6 -0.5 31.1 90 -1.9 28.5
18:15 1004 29.65 833 24.6 -0.3 31.5 87 -2.1 28.2
18:20 1004 29.65 833 24.6 0.5 32.9 83 -2 28.4
18:25 1004 29.65 833 24.6 0.3 32.5 86 -1.8 28.7
18:30 1004 29.65 833 24.6 -0.2 31.6 87 -2.1 28.1
18:35 1004 29.65 833 24.6 -0.3 31.5 86 -2.3 27.9
18:40 1004 29.65 833 24.6 -0.4 31.3 87 -2.3 27.9
18:45 1004 29.65 833 24.6 -0.3 31.4 86 -2.4 27.7
18:50 1004 29.65 833 24.6 -0.1 31.7 85 -2.4 27.7
18:55 1004 29.65 833 24.6 -0 31.9 84 -2.4 27.7
19:00 1004 29.65 833 24.6 0.1 32.3 83 -2.3 27.8
19:05 1004 29.65 833 24.6 0.2 32.3 84 -2.3 27.9
19:10 1004 29.65 833 24.6 0.1 32.1 83 -2.4 27.6
19:15 1004 29.65 833 24.6 0.1 32.2 83 -2.4 27.7
19:20 1004 29.65 833 24.6 0.2 32.3 83 -2.4 27.6
19:25 1004 29.65 833 24.6 0.1 32.3 82 -2.5 27.5
19:30 1004 29.65 833 24.6 0.2 32.3 81 -2.7 27.2
19:35 1004 29.65 833 24.6 0.2 32.4 81 -2.6 27.3
19:40 1003 29.62 833 24.6 0.2 32.4 82 -2.5 27.5
19:45 1003 29.62 833 24.6 0.1 32.2 82 -2.6 27.4
19:50 1003 29.62 833 24.6 -0 31.9 85 -2.3 27.9
19:55 1003 29.62 833 24.6 -0.2 31.7 85 -2.4 27.6
20:00 1003 29.62 833 24.6 -0.2 31.7 85 -2.5 27.5
20:05 1003 29.62 833 24.6 -0.2 31.6 86 -2.3 27.8
20:10 1003 29.62 833 24.6 -0.4 31.2 86 -2.5 27.5
20:15 1003 29.62 833 24.6 -0.6 30.9 87 -2.6 27.4
20:20 1003 29.62 833 24.6 -0.7 30.7 87 -2.6 27.3
20:25 1003 29.62 833 24.6 -0.8 30.6 86 -2.8 27
20:30 1003 29.62 833 24.6 -0.5 31.1 85 -2.7 27.1
20:35 1003 29.62 833 24.6 -0.3 31.5 84 -2.6 27.4
20:40 1003 29.62 833 24.6 -0.4 31.3 85 -2.6 27.4
20:45 1003 29.62 833 24.6 -0.8 30.6 87 -2.7 27.1
20:50 1003 29.62 833 24.6 -0.8 30.5 86 -3 26.7
20:55 1004 29.65 833 24.6 -0.7 30.7 85 -3 26.7
21:00 1004 29.65 833 24.6 -0.9 30.4 84 -3.3 26.1
21:05 1004 29.65 833 24.6 -0.9 30.4 83 -3.4 25.9
21:10 1004 29.65 833 24.6 -0.8 30.6 82 -3.5 25.7
21:15 1004 29.65 833 24.6 -0.5 31.1 80 -3.5 25.7
21:20 1003 29.62 833 24.6 -0.1 31.7 79 -3.4 25.9
21:25 1003 29.62 833 24.6 0.1 32.2 77 -3.4 25.9
21:30 1003 29.62 833 24.6 0.2 32.4 75 -3.7 25.3
21:35 1003 29.62 833 24.6 0.2 32.4 74 -3.8 25.1
21:40 1003 29.62 833 24.6 0.3 32.5 75 -3.7 25.4
21:45 1003 29.62 832 24.57 0.2 32.3 73 -4 24.8
21:50 1003 29.62 832 24.57 0.2 32.3 72 -4.3 24.3
21:55 1003 29.62 832 24.57 0.1 32.1 72 -4.4 24.1
22:00 1003 29.62 832 24.57 0 32 73 -4.2 24.4
22:05 1003 29.62 832 24.57 0.1 32.1 72 -4.3 24.2
22:10 1003 29.62 833 24.6 -0.1 31.8 73 -4.3 24.3
22:15 1003 29.62 833 24.6 -0.3 31.4 74 -4.5 24
22:20 1003 29.62 833 24.6 -0.5 31.2 72 -4.9 23.2
22:25 1003 29.62 833 24.6 -0.4 31.2 71 -5 23
22:30 1003 29.62 833 24.6 -0.3 31.4 71 -5.1 22.9
22:35 1003 29.62 833 24.6 -0.4 31.2 71 -5.1 22.8
22:40 1004 29.65 833 24.6 -0.3 31.4 70 -5.2 22.7
22:45 1004 29.65 833 24.6 -0.2 31.7 70 -5.1 22.9
22:50 1004 29.65 833 24.6 -0.2 31.6 71 -4.9 23.2
22:55 1004 29.65 833 24.6 -0.2 31.6 72 -4.6 23.6
23:00 1004 29.65 833 24.6 -0.3 31.5 75 -4.2 24.4
23:05 1004 29.65 833 24.6 -0.3 31.4 77 -3.9 25
23:10 1004 29.65 833 24.6 -0.4 31.3 78 -3.7 25.4
23:15 1004 29.65 833 24.6 -0.4 31.3 79 -3.6 25.5
23:20 1004 29.65 833 24.6 -0.4 31.2 81 -3.4 25.9
23:25 1004 29.65 833 24.6 -0.5 31.1 81 -3.4 25.9
23:30 1004 29.65 833 24.6 -0.7 30.8 82 -3.3 26.1
23:35 1004 29.65 833 24.6 -0.9 30.4 86 -3 26.6
23:40 1004 29.65 833 24.6 -1 30.3 86 -3 26.7
23:45 1004 29.65 833 24.6 -0.9 30.3 86 -2.9 26.8
23:50 1004 29.65 833 24.6 -1 30.2 87 -2.9 26.7
23:55 1004 29.65 833 24.6 -1.2 29.9 89 -2.8 27
24:00 1004 29.65 834 24.63 -1.3 29.7 85 -3.4 25.8